sensor_id;sensor_type;location;lat;lon;timestamp;P1;durP1;ratioP1;P2;durP2;ratioP2
65853;SDS011;52627;48.838;2.402;2023-08-06T00:00:43;2.30;;;0.60;;
65853;SDS011;52627;48.838;2.402;2023-08-06T00:03:11;2.60;;;0.70;;
65853;SDS011;52627;48.838;2.402;2023-08-06T00:05:41;3.90;;;0.90;;
65853;SDS011;52627;48.838;2.402;2023-08-06T00:10:39;4.40;;;0.90;;
65853;SDS011;52627;48.838;2.402;2023-08-06T00:13:08;2.70;;;0.70;;
65853;SDS011;52627;48.838;2.402;2023-08-06T00:15:35;3.80;;;0.70;;
65853;SDS011;52627;48.838;2.402;2023-08-06T00:18:03;3.70;;;0.90;;
65853;SDS011;52627;48.838;2.402;2023-08-06T00:20:30;2.60;;;0.80;;
65853;SDS011;52627;48.838;2.402;2023-08-06T00:22:58;4.10;;;0.80;;
65853;SDS011;52627;48.838;2.402;2023-08-06T00:25:25;3.50;;;0.80;;
65853;SDS011;52627;48.838;2.402;2023-08-06T00:27:52;3.10;;;0.70;;
65853;SDS011;52627;48.838;2.402;2023-08-06T00:30:20;2.50;;;0.80;;
65853;SDS011;52627;48.838;2.402;2023-08-06T00:32:47;4.20;;;0.70;;
65853;SDS011;52627;48.838;2.402;2023-08-06T00:35:16;5.10;;;0.90;;
65853;SDS011;52627;48.838;2.402;2023-08-06T00:37:43;1.90;;;0.80;;
65853;SDS011;52627;48.838;2.402;2023-08-06T00:40:11;3.80;;;1.10;;
65853;SDS011;52627;48.838;2.402;2023-08-06T00:42:38;6.40;;;1.20;;
65853;SDS011;52627;48.838;2.402;2023-08-06T00:45:06;5.10;;;1.50;;
65853;SDS011;52627;48.838;2.402;2023-08-06T00:47:34;6.90;;;1.30;;
65853;SDS011;52627;48.838;2.402;2023-08-06T00:50:02;3.70;;;1.00;;
65853;SDS011;52627;48.838;2.402;2023-08-06T00:52:29;3.50;;;0.80;;
65853;SDS011;52627;48.838;2.402;2023-08-06T00:54:57;8.40;;;1.10;;
65853;SDS011;52627;48.838;2.402;2023-08-06T00:57:25;5.50;;;0.90;;
65853;SDS011;52627;48.838;2.402;2023-08-06T00:59:55;4.40;;;0.90;;
65853;SDS011;52627;48.838;2.402;2023-08-06T01:02:23;4.90;;;1.00;;
65853;SDS011;52627;48.838;2.402;2023-08-06T01:04:50;5.10;;;1.20;;
65853;SDS011;52627;48.838;2.402;2023-08-06T01:10:10;3.70;;;1.00;;
65853;SDS011;52627;48.838;2.402;2023-08-06T01:15:25;6.60;;;1.30;;
65853;SDS011;52627;48.838;2.402;2023-08-06T01:17:57;5.20;;;1.30;;
65853;SDS011;52627;48.838;2.402;2023-08-06T01:20:31;5.80;;;1.30;;
65853;SDS011;52627;48.838;2.402;2023-08-06T01:22:58;4.90;;;1.40;;
65853;SDS011;52627;48.838;2.402;2023-08-06T01:25:34;4.40;;;1.60;;
65853;SDS011;52627;48.838;2.402;2023-08-06T01:28:24;6.00;;;1.50;;
65853;SDS011;52627;48.838;2.402;2023-08-06T01:30:55;4.90;;;1.40;;
65853;SDS011;52627;48.838;2.402;2023-08-06T01:33:27;4.30;;;1.50;;
65853;SDS011;52627;48.838;2.402;2023-08-06T01:35:58;6.00;;;1.70;;
65853;SDS011;52627;48.838;2.402;2023-08-06T01:38:26;5.10;;;1.60;;
65853;SDS011;52627;48.838;2.402;2023-08-06T01:40:55;5.00;;;1.60;;
65853;SDS011;52627;48.838;2.402;2023-08-06T01:43:22;5.70;;;2.00;;
65853;SDS011;52627;48.838;2.402;2023-08-06T01:45:50;6.90;;;2.00;;
65853;SDS011;52627;48.838;2.402;2023-08-06T01:48:17;5.20;;;1.60;;
65853;SDS011;52627;48.838;2.402;2023-08-06T01:50:45;4.50;;;1.90;;
65853;SDS011;52627;48.838;2.402;2023-08-06T01:53:12;5.00;;;1.80;;
65853;SDS011;52627;48.838;2.402;2023-08-06T01:55:40;9.20;;;2.10;;
65853;SDS011;52627;48.838;2.402;2023-08-06T01:58:07;9.30;;;2.40;;
65853;SDS011;52627;48.838;2.402;2023-08-06T02:00:35;6.60;;;2.20;;
65853;SDS011;52627;48.838;2.402;2023-08-06T02:03:02;6.20;;;1.80;;
65853;SDS011;52627;48.838;2.402;2023-08-06T02:05:29;10.30;;;2.50;;
65853;SDS011;52627;48.838;2.402;2023-08-06T02:07:57;6.50;;;2.10;;
65853;SDS011;52627;48.838;2.402;2023-08-06T02:10:24;6.00;;;2.20;;
65853;SDS011;52627;48.838;2.402;2023-08-06T02:12:52;5.60;;;2.10;;
65853;SDS011;52627;48.838;2.402;2023-08-06T02:15:19;7.10;;;1.70;;
65853;SDS011;52627;48.838;2.402;2023-08-06T02:17:47;7.40;;;2.20;;
65853;SDS011;52627;48.838;2.402;2023-08-06T02:20:14;5.50;;;2.10;;
65853;SDS011;52627;48.838;2.402;2023-08-06T02:22:42;5.20;;;2.20;;
65853;SDS011;52627;48.838;2.402;2023-08-06T02:25:09;5.80;;;2.40;;
65853;SDS011;52627;48.838;2.402;2023-08-06T02:27:37;5.00;;;2.00;;
65853;SDS011;52627;48.838;2.402;2023-08-06T02:30:05;6.40;;;2.30;;
65853;SDS011;52627;48.838;2.402;2023-08-06T02:32:35;4.10;;;2.00;;
65853;SDS011;52627;48.838;2.402;2023-08-06T02:35:03;7.70;;;2.40;;
65853;SDS011;52627;48.838;2.402;2023-08-06T02:37:33;7.70;;;2.30;;
65853;SDS011;52627;48.838;2.402;2023-08-06T02:40:01;5.50;;;2.30;;
65853;SDS011;52627;48.838;2.402;2023-08-06T02:42:29;7.60;;;2.30;;
65853;SDS011;52627;48.838;2.402;2023-08-06T02:44:56;6.40;;;2.20;;
65853;SDS011;52627;48.838;2.402;2023-08-06T02:47:24;5.90;;;2.30;;
65853;SDS011;52627;48.838;2.402;2023-08-06T02:49:52;5.00;;;2.40;;
65853;SDS011;52627;48.838;2.402;2023-08-06T02:52:19;10.30;;;2.70;;
65853;SDS011;52627;48.838;2.402;2023-08-06T02:54:46;5.80;;;2.20;;
65853;SDS011;52627;48.838;2.402;2023-08-06T02:57:14;6.50;;;2.40;;
65853;SDS011;52627;48.838;2.402;2023-08-06T02:59:41;5.20;;;2.30;;
65853;SDS011;52627;48.838;2.402;2023-08-06T03:02:09;7.50;;;2.50;;
65853;SDS011;52627;48.838;2.402;2023-08-06T03:04:36;5.80;;;2.50;;
65853;SDS011;52627;48.838;2.402;2023-08-06T03:07:03;7.20;;;2.60;;
65853;SDS011;52627;48.838;2.402;2023-08-06T03:09:31;5.50;;;2.60;;
65853;SDS011;52627;48.838;2.402;2023-08-06T03:11:58;7.70;;;2.60;;
65853;SDS011;52627;48.838;2.402;2023-08-06T03:14:26;5.70;;;2.40;;
65853;SDS011;52627;48.838;2.402;2023-08-06T03:16:53;4.80;;;2.30;;
65853;SDS011;52627;48.838;2.402;2023-08-06T03:19:21;6.50;;;2.30;;
65853;SDS011;52627;48.838;2.402;2023-08-06T03:21:48;6.10;;;2.20;;
65853;SDS011;52627;48.838;2.402;2023-08-06T03:24:16;7.40;;;2.40;;
65853;SDS011;52627;48.838;2.402;2023-08-06T03:26:43;6.10;;;2.30;;
65853;SDS011;52627;48.838;2.402;2023-08-06T03:29:11;10.00;;;2.50;;
65853;SDS011;52627;48.838;2.402;2023-08-06T03:31:38;7.40;;;2.70;;
65853;SDS011;52627;48.838;2.402;2023-08-06T03:34:06;9.80;;;2.80;;
65853;SDS011;52627;48.838;2.402;2023-08-06T03:36:33;7.80;;;2.50;;
65853;SDS011;52627;48.838;2.402;2023-08-06T03:39:01;7.10;;;2.60;;
65853;SDS011;52627;48.838;2.402;2023-08-06T03:41:28;5.30;;;2.60;;
65853;SDS011;52627;48.838;2.402;2023-08-06T03:43:56;6.20;;;2.30;;
65853;SDS011;52627;48.838;2.402;2023-08-06T03:46:23;4.90;;;2.20;;
65853;SDS011;52627;48.838;2.402;2023-08-06T03:48:51;5.00;;;2.20;;
65853;SDS011;52627;48.838;2.402;2023-08-06T03:51:18;6.70;;;2.80;;
65853;SDS011;52627;48.838;2.402;2023-08-06T03:53:46;7.10;;;2.40;;
65853;SDS011;52627;48.838;2.402;2023-08-06T03:56:13;4.70;;;2.10;;
65853;SDS011;52627;48.838;2.402;2023-08-06T03:58:40;6.10;;;2.80;;
65853;SDS011;52627;48.838;2.402;2023-08-06T04:01:08;5.70;;;2.60;;
65853;SDS011;52627;48.838;2.402;2023-08-06T04:03:36;5.20;;;2.40;;
65853;SDS011;52627;48.838;2.402;2023-08-06T04:06:03;5.60;;;2.60;;
65853;SDS011;52627;48.838;2.402;2023-08-06T04:08:31;6.90;;;2.60;;
65853;SDS011;52627;48.838;2.402;2023-08-06T04:10:59;6.40;;;3.00;;
65853;SDS011;52627;48.838;2.402;2023-08-06T04:13:26;8.20;;;2.50;;
65853;SDS011;52627;48.838;2.402;2023-08-06T04:15:54;8.80;;;2.70;;
65853;SDS011;52627;48.838;2.402;2023-08-06T04:18:21;4.20;;;2.50;;
65853;SDS011;52627;48.838;2.402;2023-08-06T04:20:49;6.70;;;2.80;;
65853;SDS011;52627;48.838;2.402;2023-08-06T04:23:16;5.80;;;2.60;;
65853;SDS011;52627;48.838;2.402;2023-08-06T04:25:44;6.60;;;2.50;;
65853;SDS011;52627;48.838;2.402;2023-08-06T04:28:11;5.50;;;2.40;;
65853;SDS011;52627;48.838;2.402;2023-08-06T04:30:39;7.60;;;2.80;;
65853;SDS011;52627;48.838;2.402;2023-08-06T04:33:06;8.20;;;2.80;;
65853;SDS011;52627;48.838;2.402;2023-08-06T04:35:34;5.60;;;2.60;;
65853;SDS011;52627;48.838;2.402;2023-08-06T04:38:01;6.70;;;2.60;;
65853;SDS011;52627;48.838;2.402;2023-08-06T04:40:28;7.80;;;2.40;;
65853;SDS011;52627;48.838;2.402;2023-08-06T04:42:56;5.30;;;2.60;;
65853;SDS011;52627;48.838;2.402;2023-08-06T04:45:23;6.10;;;2.40;;
65853;SDS011;52627;48.838;2.402;2023-08-06T04:47:51;6.30;;;2.90;;
65853;SDS011;52627;48.838;2.402;2023-08-06T04:50:19;8.20;;;3.00;;
65853;SDS011;52627;48.838;2.402;2023-08-06T04:52:47;5.80;;;2.50;;
65853;SDS011;52627;48.838;2.402;2023-08-06T04:55:14;5.90;;;2.60;;
65853;SDS011;52627;48.838;2.402;2023-08-06T04:57:42;8.40;;;2.90;;
65853;SDS011;52627;48.838;2.402;2023-08-06T05:00:10;7.80;;;2.80;;
65853;SDS011;52627;48.838;2.402;2023-08-06T05:02:37;5.90;;;2.50;;
65853;SDS011;52627;48.838;2.402;2023-08-06T05:05:06;7.80;;;2.60;;
65853;SDS011;52627;48.838;2.402;2023-08-06T05:07:34;5.70;;;2.70;;
65853;SDS011;52627;48.838;2.402;2023-08-06T05:10:02;6.50;;;2.80;;
65853;SDS011;52627;48.838;2.402;2023-08-06T05:12:31;6.50;;;2.30;;
65853;SDS011;52627;48.838;2.402;2023-08-06T05:14:59;6.70;;;2.90;;
65853;SDS011;52627;48.838;2.402;2023-08-06T05:17:26;4.70;;;2.30;;
65853;SDS011;52627;48.838;2.402;2023-08-06T05:19:54;4.90;;;2.40;;
65853;SDS011;52627;48.838;2.402;2023-08-06T05:22:21;5.80;;;2.20;;
65853;SDS011;52627;48.838;2.402;2023-08-06T05:24:49;5.40;;;2.60;;
65853;SDS011;52627;48.838;2.402;2023-08-06T05:27:16;6.60;;;2.50;;
65853;SDS011;52627;48.838;2.402;2023-08-06T05:29:48;9.10;;;2.90;;
65853;SDS011;52627;48.838;2.402;2023-08-06T05:32:16;5.30;;;2.30;;
65853;SDS011;52627;48.838;2.402;2023-08-06T05:34:43;6.10;;;2.70;;
65853;SDS011;52627;48.838;2.402;2023-08-06T05:37:10;4.60;;;2.00;;
65853;SDS011;52627;48.838;2.402;2023-08-06T05:39:38;4.30;;;2.00;;
65853;SDS011;52627;48.838;2.402;2023-08-06T05:42:05;4.70;;;2.10;;
65853;SDS011;52627;48.838;2.402;2023-08-06T05:44:33;4.80;;;2.30;;
65853;SDS011;52627;48.838;2.402;2023-08-06T05:47:01;5.30;;;2.70;;
65853;SDS011;52627;48.838;2.402;2023-08-06T05:49:28;4.80;;;2.20;;
65853;SDS011;52627;48.838;2.402;2023-08-06T05:51:56;4.00;;;1.80;;
65853;SDS011;52627;48.838;2.402;2023-08-06T05:54:23;4.00;;;1.70;;
65853;SDS011;52627;48.838;2.402;2023-08-06T05:56:50;4.50;;;1.90;;
65853;SDS011;52627;48.838;2.402;2023-08-06T05:59:18;6.30;;;2.30;;
65853;SDS011;52627;48.838;2.402;2023-08-06T06:01:45;5.30;;;2.30;;
65853;SDS011;52627;48.838;2.402;2023-08-06T06:04:13;6.90;;;2.20;;
65853;SDS011;52627;48.838;2.402;2023-08-06T06:06:40;6.00;;;2.30;;
65853;SDS011;52627;48.838;2.402;2023-08-06T06:09:09;6.20;;;2.00;;
65853;SDS011;52627;48.838;2.402;2023-08-06T06:11:36;5.30;;;1.70;;
65853;SDS011;52627;48.838;2.402;2023-08-06T06:14:04;4.50;;;2.10;;
65853;SDS011;52627;48.838;2.402;2023-08-06T06:16:31;5.20;;;1.90;;
65853;SDS011;52627;48.838;2.402;2023-08-06T06:18:58;5.70;;;2.40;;
65853;SDS011;52627;48.838;2.402;2023-08-06T06:21:26;5.60;;;2.30;;
65853;SDS011;52627;48.838;2.402;2023-08-06T06:23:53;4.50;;;2.00;;
65853;SDS011;52627;48.838;2.402;2023-08-06T06:26:21;4.00;;;2.00;;
65853;SDS011;52627;48.838;2.402;2023-08-06T06:28:48;7.90;;;2.40;;
65853;SDS011;52627;48.838;2.402;2023-08-06T06:31:16;5.80;;;2.10;;
65853;SDS011;52627;48.838;2.402;2023-08-06T06:33:43;4.30;;;1.80;;
65853;SDS011;52627;48.838;2.402;2023-08-06T06:36:11;6.00;;;1.70;;
65853;SDS011;52627;48.838;2.402;2023-08-06T06:38:39;5.10;;;1.80;;
65853;SDS011;52627;48.838;2.402;2023-08-06T06:41:06;3.80;;;1.50;;
65853;SDS011;52627;48.838;2.402;2023-08-06T06:43:34;5.20;;;1.70;;
65853;SDS011;52627;48.838;2.402;2023-08-06T06:46:02;5.00;;;1.90;;
65853;SDS011;52627;48.838;2.402;2023-08-06T06:48:31;5.80;;;2.00;;
65853;SDS011;52627;48.838;2.402;2023-08-06T06:50:59;4.10;;;1.60;;
65853;SDS011;52627;48.838;2.402;2023-08-06T06:53:27;5.10;;;1.60;;
65853;SDS011;52627;48.838;2.402;2023-08-06T06:55:55;4.20;;;1.70;;
65853;SDS011;52627;48.838;2.402;2023-08-06T06:58:23;4.60;;;1.60;;
65853;SDS011;52627;48.838;2.402;2023-08-06T07:00:51;4.10;;;1.80;;
65853;SDS011;52627;48.838;2.402;2023-08-06T07:03:20;4.30;;;1.80;;
65853;SDS011;52627;48.838;2.402;2023-08-06T07:05:48;5.20;;;1.80;;
65853;SDS011;52627;48.838;2.402;2023-08-06T07:08:17;4.50;;;1.60;;
65853;SDS011;52627;48.838;2.402;2023-08-06T07:10:44;3.50;;;1.30;;
65853;SDS011;52627;48.838;2.402;2023-08-06T07:13:12;5.20;;;1.90;;
65853;SDS011;52627;48.838;2.402;2023-08-06T07:15:39;6.30;;;1.80;;
65853;SDS011;52627;48.838;2.402;2023-08-06T07:18:06;3.80;;;1.50;;
65853;SDS011;52627;48.838;2.402;2023-08-06T07:20:34;6.10;;;1.60;;
65853;SDS011;52627;48.838;2.402;2023-08-06T07:23:01;5.10;;;1.60;;
65853;SDS011;52627;48.838;2.402;2023-08-06T07:25:29;4.30;;;1.60;;
65853;SDS011;52627;48.838;2.402;2023-08-06T07:27:56;4.30;;;1.50;;
65853;SDS011;52627;48.838;2.402;2023-08-06T07:30:24;4.60;;;1.60;;
65853;SDS011;52627;48.838;2.402;2023-08-06T07:32:52;7.20;;;1.50;;
65853;SDS011;52627;48.838;2.402;2023-08-06T07:35:20;5.70;;;1.40;;
65853;SDS011;52627;48.838;2.402;2023-08-06T07:37:47;4.70;;;1.50;;
65853;SDS011;52627;48.838;2.402;2023-08-06T07:40:15;4.80;;;1.60;;
65853;SDS011;52627;48.838;2.402;2023-08-06T07:42:42;5.60;;;1.80;;
65853;SDS011;52627;48.838;2.402;2023-08-06T07:45:10;5.50;;;1.70;;
65853;SDS011;52627;48.838;2.402;2023-08-06T07:47:37;7.20;;;2.10;;
65853;SDS011;52627;48.838;2.402;2023-08-06T07:50:05;4.90;;;1.70;;
65853;SDS011;52627;48.838;2.402;2023-08-06T07:52:33;6.10;;;2.30;;
65853;SDS011;52627;48.838;2.402;2023-08-06T07:55:01;6.00;;;1.50;;
65853;SDS011;52627;48.838;2.402;2023-08-06T07:57:32;5.00;;;1.60;;
65853;SDS011;52627;48.838;2.402;2023-08-06T08:00:01;5.20;;;1.50;;
65853;SDS011;52627;48.838;2.402;2023-08-06T08:02:28;7.70;;;1.70;;
65853;SDS011;52627;48.838;2.402;2023-08-06T08:04:57;3.90;;;1.60;;
65853;SDS011;52627;48.838;2.402;2023-08-06T08:07:25;3.90;;;1.30;;
65853;SDS011;52627;48.838;2.402;2023-08-06T08:09:54;4.90;;;1.70;;
65853;SDS011;52627;48.838;2.402;2023-08-06T08:12:22;5.50;;;1.90;;
65853;SDS011;52627;48.838;2.402;2023-08-06T08:14:50;5.60;;;1.90;;
65853;SDS011;52627;48.838;2.402;2023-08-06T08:17:17;5.00;;;1.80;;
65853;SDS011;52627;48.838;2.402;2023-08-06T08:19:44;4.10;;;1.60;;
65853;SDS011;52627;48.838;2.402;2023-08-06T08:22:12;4.40;;;1.50;;
65853;SDS011;52627;48.838;2.402;2023-08-06T08:24:39;4.30;;;1.50;;
65853;SDS011;52627;48.838;2.402;2023-08-06T08:27:07;4.60;;;1.50;;
65853;SDS011;52627;48.838;2.402;2023-08-06T08:29:34;5.30;;;1.80;;
65853;SDS011;52627;48.838;2.402;2023-08-06T08:32:01;5.30;;;1.70;;
65853;SDS011;52627;48.838;2.402;2023-08-06T08:34:29;3.40;;;1.40;;
65853;SDS011;52627;48.838;2.402;2023-08-06T08:36:56;5.70;;;1.50;;
65853;SDS011;52627;48.838;2.402;2023-08-06T08:39:24;6.30;;;2.00;;
65853;SDS011;52627;48.838;2.402;2023-08-06T08:41:52;5.60;;;1.70;;
65853;SDS011;52627;48.838;2.402;2023-08-06T08:44:20;8.30;;;2.40;;
65853;SDS011;52627;48.838;2.402;2023-08-06T08:46:47;5.50;;;1.90;;
65853;SDS011;52627;48.838;2.402;2023-08-06T08:49:16;5.00;;;1.50;;
65853;SDS011;52627;48.838;2.402;2023-08-06T08:51:45;4.70;;;1.60;;
65853;SDS011;52627;48.838;2.402;2023-08-06T08:54:15;7.30;;;1.60;;
65853;SDS011;52627;48.838;2.402;2023-08-06T08:56:44;5.70;;;1.70;;
65853;SDS011;52627;48.838;2.402;2023-08-06T08:59:11;4.70;;;1.80;;
65853;SDS011;52627;48.838;2.402;2023-08-06T09:01:39;7.70;;;2.00;;
65853;SDS011;52627;48.838;2.402;2023-08-06T09:04:09;6.50;;;2.10;;
65853;SDS011;52627;48.838;2.402;2023-08-06T09:06:38;3.60;;;1.60;;
65853;SDS011;52627;48.838;2.402;2023-08-06T09:09:12;4.80;;;1.90;;
65853;SDS011;52627;48.838;2.402;2023-08-06T09:11:43;4.50;;;1.80;;
65853;SDS011;52627;48.838;2.402;2023-08-06T09:14:11;5.00;;;1.50;;
65853;SDS011;52627;48.838;2.402;2023-08-06T09:16:39;6.40;;;2.30;;
65853;SDS011;52627;48.838;2.402;2023-08-06T09:19:11;4.60;;;1.90;;
65853;SDS011;52627;48.838;2.402;2023-08-06T09:21:45;5.60;;;2.40;;
65853;SDS011;52627;48.838;2.402;2023-08-06T09:24:17;4.10;;;1.80;;
65853;SDS011;52627;48.838;2.402;2023-08-06T09:26:44;4.80;;;1.90;;
65853;SDS011;52627;48.838;2.402;2023-08-06T09:29:12;4.70;;;1.60;;
65853;SDS011;52627;48.838;2.402;2023-08-06T09:31:45;6.40;;;1.70;;
65853;SDS011;52627;48.838;2.402;2023-08-06T09:34:18;5.40;;;1.70;;
65853;SDS011;52627;48.838;2.402;2023-08-06T09:36:54;3.70;;;1.80;;
65853;SDS011;52627;48.838;2.402;2023-08-06T09:39:29;4.60;;;1.90;;
65853;SDS011;52627;48.838;2.402;2023-08-06T09:41:58;4.70;;;2.30;;
65853;SDS011;52627;48.838;2.402;2023-08-06T09:44:31;3.60;;;1.60;;
65853;SDS011;52627;48.838;2.402;2023-08-06T09:47:03;4.60;;;1.80;;
65853;SDS011;52627;48.838;2.402;2023-08-06T09:52:01;4.70;;;1.80;;
65853;SDS011;52627;48.838;2.402;2023-08-06T09:54:29;4.90;;;1.90;;
65853;SDS011;52627;48.838;2.402;2023-08-06T09:56:57;5.70;;;1.70;;
65853;SDS011;52627;48.838;2.402;2023-08-06T09:59:25;6.20;;;1.90;;
65853;SDS011;52627;48.838;2.402;2023-08-06T10:01:54;5.60;;;1.50;;
65853;SDS011;52627;48.838;2.402;2023-08-06T10:04:25;5.30;;;1.70;;
65853;SDS011;52627;48.838;2.402;2023-08-06T10:07:01;4.00;;;1.60;;
65853;SDS011;52627;48.838;2.402;2023-08-06T10:09:29;4.40;;;1.60;;
65853;SDS011;52627;48.838;2.402;2023-08-06T10:11:57;3.80;;;1.50;;
65853;SDS011;52627;48.838;2.402;2023-08-06T10:14:29;3.80;;;1.50;;
65853;SDS011;52627;48.838;2.402;2023-08-06T10:17:00;5.00;;;1.80;;
65853;SDS011;52627;48.838;2.402;2023-08-06T10:19:29;4.00;;;1.60;;
65853;SDS011;52627;48.838;2.402;2023-08-06T10:22:13;3.30;;;1.30;;
65853;SDS011;52627;48.838;2.402;2023-08-06T10:27:29;6.50;;;2.40;;
65853;SDS011;52627;48.838;2.402;2023-08-06T10:30:32;6.90;;;1.70;;
65853;SDS011;52627;48.838;2.402;2023-08-06T10:33:03;4.40;;;1.60;;
65853;SDS011;52627;48.838;2.402;2023-08-06T10:35:38;4.60;;;1.30;;
65853;SDS011;52627;48.838;2.402;2023-08-06T10:38:10;5.30;;;2.00;;
65853;SDS011;52627;48.838;2.402;2023-08-06T10:41:01;3.90;;;1.80;;
65853;SDS011;52627;48.838;2.402;2023-08-06T10:46:03;4.00;;;1.40;;
65853;SDS011;52627;48.838;2.402;2023-08-06T10:48:41;5.00;;;2.20;;
65853;SDS011;52627;48.838;2.402;2023-08-06T10:51:11;4.20;;;1.70;;
65853;SDS011;52627;48.838;2.402;2023-08-06T10:53:48;6.30;;;1.60;;
65853;SDS011;52627;48.838;2.402;2023-08-06T10:56:18;3.20;;;1.40;;
65853;SDS011;52627;48.838;2.402;2023-08-06T10:58:47;4.10;;;1.40;;
65853;SDS011;52627;48.838;2.402;2023-08-06T11:01:16;6.40;;;1.50;;
65853;SDS011;52627;48.838;2.402;2023-08-06T11:03:45;4.00;;;1.40;;
65853;SDS011;52627;48.838;2.402;2023-08-06T11:06:21;3.10;;;1.40;;
65853;SDS011;52627;48.838;2.402;2023-08-06T11:08:51;6.40;;;1.40;;
65853;SDS011;52627;48.838;2.402;2023-08-06T11:11:22;4.60;;;1.70;;
65853;SDS011;52627;48.838;2.402;2023-08-06T11:13:51;3.20;;;1.20;;
65853;SDS011;52627;48.838;2.402;2023-08-06T11:16:21;6.00;;;1.60;;
65853;SDS011;52627;48.838;2.402;2023-08-06T11:18:52;3.60;;;1.50;;
65853;SDS011;52627;48.838;2.402;2023-08-06T11:21:22;5.50;;;1.70;;
65853;SDS011;52627;48.838;2.402;2023-08-06T11:23:53;5.00;;;1.70;;
65853;SDS011;52627;48.838;2.402;2023-08-06T11:26:21;5.00;;;1.70;;
65853;SDS011;52627;48.838;2.402;2023-08-06T11:28:51;3.60;;;1.40;;
65853;SDS011;52627;48.838;2.402;2023-08-06T11:31:22;4.20;;;1.30;;
65853;SDS011;52627;48.838;2.402;2023-08-06T11:33:52;5.00;;;1.60;;
65853;SDS011;52627;48.838;2.402;2023-08-06T11:36:30;3.40;;;1.60;;
65853;SDS011;52627;48.838;2.402;2023-08-06T11:39:02;4.80;;;1.50;;
65853;SDS011;52627;48.838;2.402;2023-08-06T11:41:32;3.10;;;1.30;;
65853;SDS011;52627;48.838;2.402;2023-08-06T11:44:00;3.90;;;1.60;;
65853;SDS011;52627;48.838;2.402;2023-08-06T11:46:27;4.40;;;1.50;;
65853;SDS011;52627;48.838;2.402;2023-08-06T11:48:56;3.60;;;1.20;;
65853;SDS011;52627;48.838;2.402;2023-08-06T11:51:25;5.60;;;1.50;;
65853;SDS011;52627;48.838;2.402;2023-08-06T11:53:57;4.10;;;1.40;;
65853;SDS011;52627;48.838;2.402;2023-08-06T11:56:26;4.00;;;1.40;;
65853;SDS011;52627;48.838;2.402;2023-08-06T11:58:54;4.50;;;1.60;;
65853;SDS011;52627;48.838;2.402;2023-08-06T12:01:23;4.30;;;1.60;;
65853;SDS011;52627;48.838;2.402;2023-08-06T12:03:50;5.10;;;1.60;;
65853;SDS011;52627;48.838;2.402;2023-08-06T12:06:18;6.00;;;1.80;;
65853;SDS011;52627;48.838;2.402;2023-08-06T12:08:46;3.80;;;1.60;;
65853;SDS011;52627;48.838;2.402;2023-08-06T12:11:13;4.90;;;1.70;;
65853;SDS011;52627;48.838;2.402;2023-08-06T12:13:41;4.90;;;1.90;;
65853;SDS011;52627;48.838;2.402;2023-08-06T12:16:08;4.00;;;1.60;;
65853;SDS011;52627;48.838;2.402;2023-08-06T12:18:36;4.80;;;1.60;;
65853;SDS011;52627;48.838;2.402;2023-08-06T12:21:03;4.80;;;1.40;;
65853;SDS011;52627;48.838;2.402;2023-08-06T12:23:30;5.10;;;1.70;;
65853;SDS011;52627;48.838;2.402;2023-08-06T12:26:00;6.00;;;1.90;;
65853;SDS011;52627;48.838;2.402;2023-08-06T12:28:27;5.80;;;1.70;;
65853;SDS011;52627;48.838;2.402;2023-08-06T12:30:55;5.30;;;1.70;;
65853;SDS011;52627;48.838;2.402;2023-08-06T12:33:22;3.70;;;1.70;;
65853;SDS011;52627;48.838;2.402;2023-08-06T12:35:50;3.80;;;1.40;;
65853;SDS011;52627;48.838;2.402;2023-08-06T12:38:17;5.20;;;1.50;;
65853;SDS011;52627;48.838;2.402;2023-08-06T12:40:45;3.50;;;1.50;;
65853;SDS011;52627;48.838;2.402;2023-08-06T12:43:12;4.30;;;2.00;;
65853;SDS011;52627;48.838;2.402;2023-08-06T12:45:40;4.00;;;1.70;;
65853;SDS011;52627;48.838;2.402;2023-08-06T12:48:08;4.40;;;1.40;;
65853;SDS011;52627;48.838;2.402;2023-08-06T12:50:35;4.60;;;1.60;;
65853;SDS011;52627;48.838;2.402;2023-08-06T12:53:03;3.50;;;1.40;;
65853;SDS011;52627;48.838;2.402;2023-08-06T12:55:32;3.40;;;1.30;;
65853;SDS011;52627;48.838;2.402;2023-08-06T12:58:00;5.00;;;1.40;;
65853;SDS011;52627;48.838;2.402;2023-08-06T13:00:27;3.40;;;1.30;;
65853;SDS011;52627;48.838;2.402;2023-08-06T13:02:55;3.70;;;1.70;;
65853;SDS011;52627;48.838;2.402;2023-08-06T13:05:23;4.90;;;1.80;;
65853;SDS011;52627;48.838;2.402;2023-08-06T13:07:50;4.40;;;1.70;;
65853;SDS011;52627;48.838;2.402;2023-08-06T13:10:18;5.80;;;1.60;;
65853;SDS011;52627;48.838;2.402;2023-08-06T13:12:47;6.40;;;1.70;;
65853;SDS011;52627;48.838;2.402;2023-08-06T13:15:14;4.30;;;1.70;;
65853;SDS011;52627;48.838;2.402;2023-08-06T13:17:44;5.10;;;1.80;;
65853;SDS011;52627;48.838;2.402;2023-08-06T13:20:12;5.30;;;1.60;;
65853;SDS011;52627;48.838;2.402;2023-08-06T13:22:39;4.10;;;1.90;;
65853;SDS011;52627;48.838;2.402;2023-08-06T13:25:07;3.90;;;1.80;;
65853;SDS011;52627;48.838;2.402;2023-08-06T13:27:34;5.10;;;1.90;;
65853;SDS011;52627;48.838;2.402;2023-08-06T13:30:02;3.50;;;1.70;;
65853;SDS011;52627;48.838;2.402;2023-08-06T13:32:30;5.20;;;1.90;;
65853;SDS011;52627;48.838;2.402;2023-08-06T13:34:59;4.50;;;1.80;;
65853;SDS011;52627;48.838;2.402;2023-08-06T13:37:27;4.10;;;1.60;;
65853;SDS011;52627;48.838;2.402;2023-08-06T13:39:54;4.60;;;1.90;;
65853;SDS011;52627;48.838;2.402;2023-08-06T13:42:22;4.40;;;1.60;;
65853;SDS011;52627;48.838;2.402;2023-08-06T13:44:50;3.70;;;1.90;;
65853;SDS011;52627;48.838;2.402;2023-08-06T13:47:17;3.60;;;1.90;;
65853;SDS011;52627;48.838;2.402;2023-08-06T13:49:45;5.30;;;1.60;;
65853;SDS011;52627;48.838;2.402;2023-08-06T13:52:30;4.50;;;1.30;;
65853;SDS011;52627;48.838;2.402;2023-08-06T13:54:57;4.40;;;1.60;;
65853;SDS011;52627;48.838;2.402;2023-08-06T13:57:25;3.50;;;1.20;;
65853;SDS011;52627;48.838;2.402;2023-08-06T13:59:52;3.50;;;1.40;;
65853;SDS011;52627;48.838;2.402;2023-08-06T14:02:20;2.90;;;1.50;;
65853;SDS011;52627;48.838;2.402;2023-08-06T14:04:47;4.30;;;1.40;;
65853;SDS011;52627;48.838;2.402;2023-08-06T14:07:15;4.70;;;1.60;;
65853;SDS011;52627;48.838;2.402;2023-08-06T14:09:42;3.60;;;1.40;;
65853;SDS011;52627;48.838;2.402;2023-08-06T14:12:11;3.20;;;1.30;;
65853;SDS011;52627;48.838;2.402;2023-08-06T14:14:39;3.50;;;1.40;;
65853;SDS011;52627;48.838;2.402;2023-08-06T14:17:07;3.90;;;1.30;;
65853;SDS011;52627;48.838;2.402;2023-08-06T14:19:34;4.30;;;1.60;;
65853;SDS011;52627;48.838;2.402;2023-08-06T14:22:02;4.20;;;1.50;;
65853;SDS011;52627;48.838;2.402;2023-08-06T14:24:29;4.30;;;1.40;;
65853;SDS011;52627;48.838;2.402;2023-08-06T14:26:56;4.20;;;1.60;;
65853;SDS011;52627;48.838;2.402;2023-08-06T14:29:24;3.80;;;1.60;;
65853;SDS011;52627;48.838;2.402;2023-08-06T14:31:51;3.60;;;1.50;;
65853;SDS011;52627;48.838;2.402;2023-08-06T14:34:19;5.20;;;1.60;;
65853;SDS011;52627;48.838;2.402;2023-08-06T14:36:46;3.40;;;1.50;;
65853;SDS011;52627;48.838;2.402;2023-08-06T14:39:14;4.30;;;1.60;;
65853;SDS011;52627;48.838;2.402;2023-08-06T14:41:41;4.00;;;1.40;;
65853;SDS011;52627;48.838;2.402;2023-08-06T14:44:09;4.40;;;1.40;;
65853;SDS011;52627;48.838;2.402;2023-08-06T14:46:36;3.60;;;1.40;;
65853;SDS011;52627;48.838;2.402;2023-08-06T14:49:03;3.00;;;1.30;;
65853;SDS011;52627;48.838;2.402;2023-08-06T14:51:31;3.40;;;1.40;;
65853;SDS011;52627;48.838;2.402;2023-08-06T14:53:58;3.80;;;1.40;;
65853;SDS011;52627;48.838;2.402;2023-08-06T14:56:26;3.30;;;1.30;;
65853;SDS011;52627;48.838;2.402;2023-08-06T14:58:53;3.40;;;1.30;;
65853;SDS011;52627;48.838;2.402;2023-08-06T15:01:20;4.60;;;1.60;;
65853;SDS011;52627;48.838;2.402;2023-08-06T15:03:48;3.00;;;1.40;;
65853;SDS011;52627;48.838;2.402;2023-08-06T15:06:15;3.10;;;1.10;;
65853;SDS011;52627;48.838;2.402;2023-08-06T15:08:43;6.70;;;1.30;;
65853;SDS011;52627;48.838;2.402;2023-08-06T15:11:13;2.80;;;1.00;;